Terminal Aerodrome Forecast
Issued by NWS

Home | Current Version | Previous Version | Text Only | Print | Product List | Glossary On
Versions: 1 2 3 4 5 6 7 8 9 10 11 12 13 14 15 16 17 18 19 20 21 22 23 24 25 26 27 28 29 30 31 32 33
000
FTUS45 KREV 282000 AAA
TAFTRK
TAF AMD
KTRK 282014Z 2820/0118 00000KT 1SM -SN BKN007 OVC015
     FM282200 02005KT 3SM -SHSN SCT012 BKN025
     FM010100 VRB03KT P6SM VCSH BKN020
     FM010900 00000KT 1SM BCFG SCT002=

USA.gov is the U.S. government's official web portal to all federal, state and local government web resources and services.